Time;durP1;ratioP1;P1;durP2;ratioP2;P2;SDS_P1;SDS_P2;PMS_P1;PMS_P2;Temp;Humidity;BMP_temperature;BMP_pressure;BME280_temperature;BME280_humidity;BME280_pressure;Samples;Min_cycle;Max_cycle;Signal;HPM_P1;HPM_P2
2022/08/13 00:01:56;;;;;;;2.10;1.92;;;26.70;90.20;;;;;;4226244;28;20662;-76
2022/08/13 00:04:00;;;;;;;2.42;1.98;;;26.70;90.20;;;;;;4236101;28;20606;-76
2022/08/13 00:06:05;;;;;;;2.53;1.90;;;26.70;90.10;;;;;;4211691;28;20262;-76
2022/08/13 00:08:07;;;;;;;2.50;2.00;;;26.60;90.00;;;;;;4217935;28;20279;-76
2022/08/13 00:10:10;;;;;;;2.80;2.00;;;26.70;90.10;;;;;;4219561;28;20218;-76
2022/08/13 00:14:41;;;;;;;1.73;1.63;;;26.60;90.20;;;;;;4223547;28;20210;-76
2022/08/13 00:16:44;;;;;;;2.92;2.00;;;26.60;90.20;;;;;;4222751;28;20243;-76
2022/08/13 00:18:46;;;;;;;1.90;1.80;;;26.60;90.30;;;;;;4222403;28;20222;-76
2022/08/13 00:20:51;;;;;;;2.15;1.95;;;26.60;90.10;;;;;;4229813;28;20238;-76
2022/08/13 00:22:55;;;;;;;2.20;2.00;;;26.60;90.40;;;;;;4229213;28;20266;-76
2022/08/13 00:24:59;;;;;;;2.20;2.00;;;26.60;90.10;;;;;;4229429;28;20214;-76
2022/08/13 00:27:01;;;;;;;2.92;2.17;;;26.60;90.30;;;;;;4229370;28;20623;-76
2022/08/13 00:29:04;;;;;;;2.22;2.03;;;26.60;90.30;;;;;;4230235;27;20257;-76
2022/08/13 00:31:08;;;;;;;3.00;2.40;;;26.60;90.30;;;;;;4235570;27;20699;-76
2022/08/13 00:33:12;;;;;;;2.00;1.80;;;26.60;90.40;;;;;;4217975;28;20662;-76
2022/08/13 00:35:14;;;;;;;2.25;2.05;;;26.60;90.30;;;;;;4219603;28;20214;-72
2022/08/13 00:37:17;;;;;;;2.03;1.80;;;26.60;90.40;;;;;;4223419;28;20638;-72
2022/08/13 00:39:19;;;;;;;2.40;1.90;;;26.60;90.30;;;;;;4229875;28;20615;-72
2022/08/13 00:43:38;;;;;;;2.35;1.95;;;26.60;90.20;;;;;;4217857;28;20205;-72
2022/08/13 00:45:42;;;;;;;2.25;2.05;;;26.50;90.50;;;;;;4229395;27;20286;-72
2022/08/13 00:50:20;;;;;;;2.30;2.10;;;26.50;90.40;;;;;;4161162;28;20746;-72
2022/08/13 00:52:26;;;;;;;2.70;2.50;;;26.60;90.20;;;;;;4163380;28;20212;-72
2022/08/13 00:54:28;;;;;;;2.10;1.90;;;26.60;90.30;;;;;;4173184;28;20217;-72
2022/08/13 00:56:33;;;;;;;2.22;2.00;;;26.50;90.30;;;;;;4233562;27;20221;-72
2022/08/13 00:58:36;;;;;;;2.30;2.10;;;26.50;90.40;;;;;;4226974;28;20210;-72
2022/08/13 01:00:38;;;;;;;2.35;2.10;;;26.50;90.40;;;;;;4222317;28;20284;-72
2022/08/13 01:02:41;;;;;;;2.83;2.10;;;26.50;90.50;;;;;;4220024;28;20970;-72
2022/08/13 01:04:46;;;;;;;2.72;2.10;;;26.50;90.40;;;;;;4227845;28;20266;-72
2022/08/13 01:06:51;;;;;;;2.17;1.90;;;26.50;90.40;;;;;;4220946;28;20219;-72
2022/08/13 01:08:54;;;;;;;2.30;2.10;;;26.50;90.50;;;;;;4217152;28;20548;-72
2022/08/13 01:10:56;;;;;;;2.28;1.95;;;26.50;90.30;;;;;;4218899;27;20209;-72
2022/08/13 01:13:00;;;;;;;2.15;1.95;;;26.50;90.40;;;;;;4236313;27;20662;-72
2022/08/13 01:15:04;;;;;;;2.65;2.10;;;26.50;90.40;;;;;;4228815;28;20218;-72
2022/08/13 01:17:07;;;;;;;3.00;2.17;;;26.50;90.40;;;;;;4218508;27;20226;-72
2022/08/13 01:19:09;;;;;;;4.30;2.20;;;26.50;90.40;;;;;;4234996;27;20233;-72
2022/08/13 01:21:15;;;;;;;2.08;1.88;;;26.50;90.40;;;;;;4224838;28;20233;-72
2022/08/13 01:23:20;;;;;;;2.30;1.90;;;26.50;90.40;;;;;;4228802;28;20218;-72
2022/08/13 01:25:25;;;;;;;1.95;1.85;;;26.50;90.50;;;;;;4228690;28;20262;-72
2022/08/13 01:27:27;;;;;;;2.22;2.03;;;26.50;90.40;;;;;;4229202;28;20213;-72
2022/08/13 01:29:30;;;;;;;2.25;2.00;;;26.50;90.50;;;;;;4214972;28;20214;-72
2022/08/13 01:31:34;;;;;;;3.30;2.00;;;26.50;90.50;;;;;;4223524;28;20257;-72
2022/08/13 01:33:36;;;;;;;2.47;2.28;;;26.40;90.30;;;;;;4217690;28;20218;-72
2022/08/13 01:35:39;;;;;;;2.10;1.98;;;26.50;90.40;;;;;;4219307;28;20279;-72
2022/08/13 01:37:42;;;;;;;2.35;2.15;;;26.40;90.60;;;;;;4220557;28;20218;-72
2022/08/13 01:39:48;;;;;;;3.05;2.00;;;26.50;90.50;;;;;;4226376;28;20270;-72
2022/08/13 01:41:51;;;;;;;3.20;2.08;;;26.40;90.40;;;;;;4215289;27;20282;-72
2022/08/13 01:44:04;;;;;;;2.25;2.05;;;26.40;90.40;;;;;;4219200;28;20301;-72
2022/08/13 01:46:08;;;;;;;2.45;2.25;;;26.40;90.60;;;;;;4222227;28;20316;-72
2022/08/13 01:50:31;;;;;;;2.35;2.15;;;26.40;90.60;;;;;;4220881;28;20202;-72
2022/08/13 01:52:34;;;;;;;2.42;2.22;;;26.50;90.60;;;;;;4216738;28;20199;-72
2022/08/13 01:54:38;;;;;;;2.00;1.80;;;26.40;90.60;;;;;;4216538;28;20294;-72
2022/08/13 01:56:43;;;;;;;3.53;2.30;;;26.40;90.70;;;;;;4219073;28;20218;-72
2022/08/13 01:58:47;;;;;;;2.67;2.03;;;26.40;90.60;;;;;;4218350;28;20266;-72
2022/08/13 02:00:55;;;;;;;2.47;2.10;;;26.40;90.60;;;;;;4222660;27;20218;-72
2022/08/13 02:02:59;;;;;;;6.25;2.33;;;26.30;90.60;;;;;;4220366;28;20606;-72
2022/08/13 02:05:01;;;;;;;2.53;2.20;;;26.40;90.60;;;;;;4210455;28;20670;-72
2022/08/13 02:07:08;;;;;;;2.38;2.05;;;26.40;90.60;;;;;;4221567;28;20666;-72
2022/08/13 02:09:11;;;;;;;2.20;2.00;;;26.40;90.60;;;;;;4220098;28;20214;-72
2022/08/13 02:11:13;;;;;;;2.65;2.40;;;26.40;90.40;;;;;;4223536;28;20255;-72
2022/08/13 02:13:19;;;;;;;2.20;2.00;;;26.40;90.70;;;;;;4218156;28;20222;-72
2022/08/13 02:15:21;;;;;;;2.83;2.05;;;26.40;90.50;;;;;;4212911;28;20214;-72
2022/08/13 02:17:27;;;;;;;2.78;2.55;;;26.30;90.60;;;;;;4214820;28;20266;-72
2022/08/13 02:19:29;;;;;;;2.50;2.15;;;26.30;90.50;;;;;;4216075;28;20214;-72
2022/08/13 02:21:34;;;;;;;1.92;1.77;;;26.30;90.50;;;;;;4225535;28;20279;-72
2022/08/13 02:23:36;;;;;;;2.45;2.25;;;26.40;90.70;;;;;;4219400;28;20597;-72
2022/08/13 02:25:39;;;;;;;2.67;2.10;;;26.40;90.70;;;;;;4221378;27;21059;-72
2022/08/13 02:27:41;;;;;;;2.20;1.98;;;26.30;90.60;;;;;;4229610;27;20217;-71
2022/08/13 02:29:45;;;;;;;2.92;1.98;;;26.30;90.60;;;;;;4228486;27;20292;-72
2022/08/13 02:31:48;;;;;;;2.40;1.90;;;26.30;90.40;;;;;;4217677;28;20670;-72
2022/08/13 02:33:52;;;;;;;2.50;2.10;;;26.30;90.50;;;;;;4221674;28;20282;-72
2022/08/13 02:35:55;;;;;;;5.40;2.65;;;26.30;90.50;;;;;;4212217;28;20290;-72
2022/08/13 02:37:57;;;;;;;2.72;2.33;;;26.30;90.50;;;;;;4215637;28;20731;-72
2022/08/13 02:40:00;;;;;;;2.20;1.90;;;26.30;90.40;;;;;;4214081;28;20361;-72
2022/08/13 02:42:01;;;;;;;5.10;2.30;;;26.30;90.50;;;;;;4220578;28;20246;-72
2022/08/13 02:44:04;;;;;;;3.03;2.13;;;26.30;90.40;;;;;;4220003;28;20241;-72
2022/08/13 02:46:09;;;;;;;2.22;1.95;;;26.30;90.90;;;;;;4217559;28;20333;-72
2022/08/13 02:48:12;;;;;;;2.78;2.22;;;26.30;90.50;;;;;;4214007;28;20222;-72
2022/08/13 02:50:16;;;;;;;3.00;2.05;;;26.30;90.50;;;;;;4223959;28;20893;-72
2022/08/13 02:52:21;;;;;;;4.15;2.30;;;26.30;90.50;;;;;;4218479;28;20210;-72
2022/08/13 02:54:25;;;;;;;4.32;2.20;;;26.30;90.90;;;;;;4217880;28;20210;-72
2022/08/13 02:56:28;;;;;;;1.95;1.85;;;26.30;90.40;;;;;;4218193;28;20218;-72
2022/08/13 02:58:30;;;;;;;3.60;2.47;;;26.20;90.30;;;;;;4222779;28;20215;-72
2022/08/13 03:00:32;;;;;;;2.38;2.17;;;26.30;90.90;;;;;;4226546;28;20356;-72
2022/08/13 03:02:39;;;;;;;2.95;2.25;;;26.20;90.60;;;;;;4221878;28;20237;-72
2022/08/13 03:04:45;;;;;;;2.65;2.42;;;26.20;90.40;;;;;;4219951;28;20221;-72
2022/08/13 03:06:49;;;;;;;2.67;2.20;;;26.20;90.50;;;;;;4213500;28;20250;-72
2022/08/13 03:08:52;;;;;;;3.30;2.47;;;26.20;90.40;;;;;;4217262;28;20574;-72
2022/08/13 03:10:56;;;;;;;2.38;2.17;;;26.20;90.50;;;;;;4218974;28;20271;-72
2022/08/13 03:13:01;;;;;;;2.63;2.15;;;26.20;90.40;;;;;;4217854;28;20603;-72
2022/08/13 03:15:05;;;;;;;2.33;2.13;;;26.20;90.60;;;;;;4215354;28;20254;-72
2022/08/13 03:17:07;;;;;;;2.58;2.38;;;26.20;90.40;;;;;;4223433;28;20218;-72
2022/08/13 03:19:12;;;;;;;2.28;2.08;;;26.20;90.50;;;;;;4224122;28;20221;-72
2022/08/13 03:21:18;;;;;;;2.92;2.60;;;26.20;90.40;;;;;;4220693;28;20686;-72
2022/08/13 03:23:22;;;;;;;2.45;2.25;;;26.20;90.50;;;;;;4213821;28;20215;-72
2022/08/13 03:25:26;;;;;;;2.58;2.10;;;26.20;90.40;;;;;;4213726;28;20210;-72
2022/08/13 03:27:29;;;;;;;2.63;2.05;;;26.20;90.40;;;;;;4223211;28;20353;-72
2022/08/13 03:29:31;;;;;;;2.67;2.40;;;26.20;90.60;;;;;;4222591;28;20244;-72
2022/08/13 03:31:35;;;;;;;2.83;1.98;;;26.20;90.40;;;;;;4223547;28;20638;-72
2022/08/13 03:33:38;;;;;;;3.15;1.92;;;26.20;90.70;;;;;;4218251;28;20383;-72
2022/08/13 03:35:42;;;;;;;3.85;2.20;;;26.20;90.50;;;;;;4211717;28;20296;-72
2022/08/13 03:37:47;;;;;;;3.03;2.40;;;26.20;90.60;;;;;;4216605;28;20270;-72
2022/08/13 03:39:50;;;;;;;2.47;2.17;;;26.20;90.90;;;;;;4218164;28;20230;-72
2022/08/13 03:41:53;;;;;;;2.20;2.00;;;26.20;90.60;;;;;;4221753;28;20242;-72
2022/08/13 03:43:55;;;;;;;3.00;2.25;;;26.20;90.70;;;;;;4225154;28;20218;-72
2022/08/13 03:45:57;;;;;;;2.22;2.03;;;26.20;90.60;;;;;;4228557;28;20298;-71
2022/08/13 03:48:00;;;;;;;2.97;2.60;;;26.10;90.40;;;;;;4221491;28;20225;-72
2022/08/13 03:50:04;;;;;;;3.17;2.30;;;26.10;90.70;;;;;;4220183;27;20268;-71
2022/08/13 03:52:08;;;;;;;2.97;2.08;;;26.10;90.80;;;;;;4215777;27;20278;-72
2022/08/13 03:54:12;;;;;;;2.95;2.00;;;26.10;90.70;;;;;;4216280;28;20215;-72
2022/08/13 03:56:15;;;;;;;4.15;2.30;;;26.10;90.60;;;;;;4222296;28;20813;-72
2022/08/13 03:58:18;;;;;;;3.03;2.13;;;26.20;90.60;;;;;;4219918;27;20210;-72
2022/08/13 04:00:22;;;;;;;2.00;1.90;;;26.10;90.60;;;;;;4225176;28;20260;-72
2022/08/13 04:02:24;;;;;;;2.83;2.20;;;26.10;90.70;;;;;;4218181;28;20279;-72
2022/08/13 04:04:26;;;;;;;4.35;2.33;;;26.10;90.60;;;;;;4223264;28;20612;-72
2022/08/13 04:06:29;;;;;;;2.60;2.15;;;26.10;90.70;;;;;;4221849;28;20218;-72
2022/08/13 04:08:35;;;;;;;2.70;2.50;;;26.10;90.80;;;;;;4218683;28;20622;-72
2022/08/13 04:10:38;;;;;;;3.33;2.00;;;26.10;90.90;;;;;;4227829;28;20213;-72
2022/08/13 04:12:40;;;;;;;2.65;2.45;;;26.10;90.70;;;;;;4226055;28;20225;-72
2022/08/13 04:14:44;;;;;;;3.22;2.30;;;26.10;90.70;;;;;;4220340;28;20223;-72
2022/08/13 04:16:46;;;;;;;3.67;2.30;;;26.00;90.60;;;;;;4230077;27;20209;-72
2022/08/13 04:18:50;;;;;;;2.72;1.92;;;26.10;90.70;;;;;;4228476;27;20217;-72
2022/08/13 04:20:55;;;;;;;3.25;2.20;;;26.00;90.60;;;;;;4220507;28;20297;-72
2022/08/13 04:22:57;;;;;;;2.75;2.20;;;26.00;90.70;;;;;;4227227;28;20275;-72
2022/08/13 04:25:04;;;;;;;2.90;2.20;;;26.10;90.70;;;;;;4225952;28;20275;-72
2022/08/13 04:27:07;;;;;;;2.33;2.03;;;26.00;90.60;;;;;;4217209;28;20287;-72
2022/08/13 04:29:11;;;;;;;2.35;2.00;;;26.10;90.80;;;;;;4215973;28;20263;-72
2022/08/13 04:31:15;;;;;;;2.42;2.20;;;26.10;90.70;;;;;;4217110;27;20217;-72
2022/08/13 04:33:17;;;;;;;2.88;2.17;;;26.00;90.60;;;;;;4218288;28;20553;-72
2022/08/13 04:35:19;;;;;;;3.00;2.10;;;26.10;90.90;;;;;;4213534;28;20288;-72
2022/08/13 04:37:24;;;;;;;2.50;2.10;;;26.00;90.60;;;;;;4226207;28;20214;-72
2022/08/13 04:39:26;;;;;;;2.85;2.22;;;26.00;90.80;;;;;;4219149;28;20221;-72
2022/08/13 04:41:30;;;;;;;2.63;2.08;;;26.00;90.80;;;;;;4223571;28;20262;-72
2022/08/13 04:43:32;;;;;;;2.85;2.60;;;26.00;90.80;;;;;;4216131;28;20299;-72
2022/08/13 04:45:36;;;;;;;6.47;2.60;;;26.00;90.80;;;;;;4213537;28;20242;-72
2022/08/13 04:47:38;;;;;;;2.50;1.90;;;26.00;90.70;;;;;;4226381;28;20247;-72
2022/08/13 04:49:40;;;;;;;2.72;2.10;;;26.00;90.70;;;;;;4215652;28;20299;-72
2022/08/13 04:51:43;;;;;;;2.70;2.40;;;26.00;90.90;;;;;;4215563;28;20230;-72
2022/08/13 04:53:45;;;;;;;2.30;2.10;;;26.00;90.80;;;;;;4212463;28;21572;-72
2022/08/13 04:55:47;;;;;;;2.50;2.13;;;26.00;90.70;;;;;;4220935;28;20214;-72
2022/08/13 04:57:51;;;;;;;2.35;2.15;;;26.00;90.90;;;;;;4219291;28;20230;-72
2022/08/13 04:59:53;;;;;;;3.22;2.25;;;26.00;90.80;;;;;;4220206;28;20217;-72
2022/08/13 05:01:55;;;;;;;2.47;2.20;;;26.00;90.80;;;;;;4215751;27;20226;-72
2022/08/13 05:03:58;;;;;;;2.75;2.28;;;25.90;90.70;;;;;;4214337;28;20242;-72
2022/08/13 05:06:01;;;;;;;2.70;2.40;;;26.00;90.80;;;;;;4227963;27;20266;-72
2022/08/13 05:08:04;;;;;;;2.40;2.13;;;25.90;90.70;;;;;;4224983;28;20222;-71
2022/08/13 05:10:07;;;;;;;2.47;2.10;;;25.90;90.80;;;;;;4228044;28;20270;-72
2022/08/13 05:12:11;;;;;;;3.17;2.38;;;26.00;90.70;;;;;;4226732;27;20258;-72
2022/08/13 05:14:14;;;;;;;4.20;2.40;;;26.00;90.80;;;;;;4219506;28;20240;-72
2022/08/13 05:16:18;;;;;;;2.88;2.53;;;25.90;90.80;;;;;;4226992;27;20205;-71
2022/08/13 05:18:21;;;;;;;2.85;2.20;;;25.90;90.90;;;;;;4227444;28;20206;-72
2022/08/13 05:20:23;;;;;;;3.28;2.30;;;25.90;90.90;;;;;;4223409;28;20206;-72
2022/08/13 05:22:29;;;;;;;3.75;2.20;;;26.00;90.80;;;;;;4218501;28;20282;-72
2022/08/13 05:24:32;;;;;;;3.58;2.45;;;25.90;90.80;;;;;;4215055;28;20669;-72
2022/08/13 05:26:35;;;;;;;2.92;2.17;;;25.90;90.70;;;;;;4219854;28;20218;-72
2022/08/13 05:28:37;;;;;;;3.00;2.33;;;25.90;90.70;;;;;;4215172;28;20215;-72
2022/08/13 05:30:41;;;;;;;3.05;2.45;;;25.90;90.90;;;;;;4223801;28;20222;-76
2022/08/13 05:32:43;;;;;;;2.97;2.20;;;25.90;90.90;;;;;;4217281;28;20247;-76
2022/08/13 05:34:48;;;;;;;3.35;2.45;;;25.90;90.80;;;;;;4220460;27;20327;-76
2022/08/13 05:36:52;;;;;;;3.17;2.40;;;25.90;90.80;;;;;;4218210;28;20268;-72
2022/08/13 05:38:55;;;;;;;3.95;2.30;;;25.90;90.70;;;;;;4220628;27;20603;-72
2022/08/13 05:41:00;;;;;;;3.20;2.33;;;25.90;90.60;;;;;;4223030;28;20599;-72
2022/08/13 05:43:02;;;;;;;2.45;2.25;;;25.90;90.80;;;;;;4226409;28;20298;-71
2022/08/13 05:45:05;;;;;;;3.03;2.13;;;25.90;90.80;;;;;;4226615;28;20281;-72
2022/08/13 05:47:09;;;;;;;2.72;2.20;;;25.90;90.80;;;;;;4220976;28;20317;-71
2022/08/13 05:49:12;;;;;;;2.83;2.10;;;25.90;90.70;;;;;;4220774;28;20410;-71
2022/08/13 05:51:14;;;;;;;3.70;2.20;;;25.90;90.90;;;;;;4225360;28;20284;-71
2022/08/13 05:53:17;;;;;;;4.35;2.22;;;25.90;90.90;;;;;;4216465;28;20211;-71
2022/08/13 05:55:20;;;;;;;2.65;2.45;;;25.90;91.10;;;;;;4219886;28;20270;-71
2022/08/13 05:57:23;;;;;;;3.65;2.55;;;25.90;90.70;;;;;;4219337;28;20222;-72
2022/08/13 06:04:09;;;;;;;2.63;2.25;;;25.90;90.80;;;;;;4221949;28;20321;-71
2022/08/13 06:06:15;;;;;;;3.53;2.47;;;25.90;90.80;;;;;;4217465;28;20214;-72
2022/08/13 06:08:17;;;;;;;2.97;2.22;;;25.90;90.90;;;;;;4213349;28;20205;-71
2022/08/13 06:10:20;;;;;;;3.17;2.30;;;25.90;90.80;;;;;;4225383;28;20214;-72
2022/08/13 06:12:22;;;;;;;3.75;2.50;;;25.90;90.70;;;;;;4221717;28;20214;-71
2022/08/13 06:14:25;;;;;;;2.47;2.28;;;25.90;90.70;;;;;;4225299;28;20274;-72
2022/08/13 06:16:30;;;;;;;4.47;2.05;;;25.90;90.80;;;;;;4227060;27;20278;-71
2022/08/13 06:18:35;;;;;;;3.78;2.28;;;25.90;90.70;;;;;;4224370;28;20252;-71
2022/08/13 06:20:40;;;;;;;3.47;1.95;;;25.90;90.80;;;;;;4217696;28;20226;-72
2022/08/13 06:22:47;;;;;;;3.03;2.33;;;25.90;90.80;;;;;;4224483;27;20222;-72
2022/08/13 06:24:50;;;;;;;2.33;2.13;;;25.90;90.70;;;;;;4214671;28;20629;-72
2022/08/13 06:26:52;;;;;;;3.00;2.28;;;25.90;90.70;;;;;;4217461;28;20303;-72
2022/08/13 06:28:55;;;;;;;3.42;2.40;;;25.90;90.70;;;;;;4219198;27;20260;-71
2022/08/13 06:31:00;;;;;;;2.80;2.33;;;25.90;90.90;;;;;;4218536;27;20278;-72
2022/08/13 06:33:02;;;;;;;4.03;2.17;;;25.90;90.70;;;;;;4221980;28;20221;-72
2022/08/13 06:35:05;;;;;;;2.70;2.20;;;25.90;90.70;;;;;;4213660;28;20267;-71
2022/08/13 06:37:09;;;;;;;3.13;2.25;;;25.90;90.80;;;;;;4218057;28;20247;-71
2022/08/13 06:39:12;;;;;;;2.88;2.13;;;25.90;90.70;;;;;;4221106;28;20666;-72
2022/08/13 06:41:16;;;;;;;5.55;2.22;;;25.90;90.80;;;;;;4227077;28;20317;-71
2022/08/13 06:43:18;;;;;;;3.10;2.50;;;25.90;90.70;;;;;;4224865;28;20722;-72
2022/08/13 06:45:21;;;;;;;3.35;2.30;;;25.90;90.80;;;;;;4220571;28;20233;-71
2022/08/13 06:47:25;;;;;;;2.90;2.17;;;25.90;90.80;;;;;;4216249;28;20214;-72
2022/08/13 06:49:28;;;;;;;2.92;2.17;;;25.90;90.80;;;;;;4223162;28;20221;-71
2022/08/13 06:51:31;;;;;;;2.97;2.35;;;25.90;91.10;;;;;;4226162;28;20635;-71
2022/08/13 06:53:35;;;;;;;3.13;2.15;;;26.00;91.00;;;;;;4219720;27;20220;-71
2022/08/13 06:55:41;;;;;;;3.05;2.60;;;25.90;91.00;;;;;;4221655;28;20217;-72
2022/08/13 06:57:46;;;;;;;3.10;2.30;;;25.90;90.90;;;;;;4223340;28;20222;-71
2022/08/13 06:59:49;;;;;;;3.17;2.53;;;25.90;90.80;;;;;;4225230;28;20270;-72
2022/08/13 07:01:58;;;;;;;2.95;2.47;;;26.00;90.80;;;;;;4220730;28;20648;-71
2022/08/13 07:04:00;;;;;;;4.28;2.20;;;25.90;90.80;;;;;;4220446;28;20270;-76
2022/08/13 07:06:03;;;;;;;3.50;2.50;;;25.90;90.80;;;;;;4225029;28;20222;-76
2022/08/13 07:08:08;;;;;;;2.17;1.98;;;25.90;90.70;;;;;;4215490;28;20225;-76
2022/08/13 07:10:13;;;;;;;3.58;2.22;;;25.90;90.70;;;;;;4213514;28;20609;-76
2022/08/13 07:12:16;;;;;;;3.70;2.63;;;25.90;90.70;;;;;;4216824;28;20210;-76
2022/08/13 07:14:18;;;;;;;2.25;2.03;;;25.90;90.70;;;;;;4214003;28;20381;-76
2022/08/13 07:16:22;;;;;;;2.88;2.30;;;25.90;90.60;;;;;;4211001;28;20252;-76
2022/08/13 07:18:25;;;;;;;2.45;2.00;;;25.90;91.10;;;;;;4215243;28;20716;-76
2022/08/13 07:20:27;;;;;;;2.97;2.28;;;26.00;90.90;;;;;;4221592;28;20575;-76
2022/08/13 07:22:29;;;;;;;2.35;2.00;;;25.90;90.70;;;;;;4227276;28;20214;-76
2022/08/13 07:24:32;;;;;;;2.33;2.00;;;25.90;90.60;;;;;;4226721;28;20321;-76
2022/08/13 07:26:37;;;;;;;2.47;2.17;;;25.90;90.40;;;;;;4220016;28;20263;-76
2022/08/13 07:28:40;;;;;;;2.88;2.30;;;26.00;90.80;;;;;;4221493;28;20214;-76
2022/08/13 07:30:46;;;;;;;2.70;2.38;;;26.00;90.60;;;;;;4223201;28;20271;-76
2022/08/13 07:32:50;;;;;;;3.00;2.13;;;26.00;90.80;;;;;;4222064;28;20263;-76
2022/08/13 07:34:53;;;;;;;2.30;2.00;;;26.00;90.50;;;;;;4221364;28;20259;-76
2022/08/13 07:36:56;;;;;;;2.83;2.30;;;25.90;90.40;;;;;;4220121;28;20214;-76
2022/08/13 07:38:59;;;;;;;2.80;2.20;;;26.00;90.50;;;;;;4222710;28;20243;-76
2022/08/13 07:41:03;;;;;;;2.47;2.25;;;26.00;90.40;;;;;;4224707;28;20222;-75
2022/08/13 07:43:08;;;;;;;2.55;1.95;;;26.00;90.50;;;;;;4229609;28;20248;-76
2022/08/13 07:45:12;;;;;;;2.13;1.83;;;26.00;90.70;;;;;;4219259;28;20327;-76
2022/08/13 07:47:15;;;;;;;3.53;2.17;;;26.00;90.70;;;;;;4228202;28;20728;-76
2022/08/13 07:49:18;;;;;;;3.03;2.05;;;26.00;90.90;;;;;;4226205;28;20218;-76
2022/08/13 07:51:22;;;;;;;3.83;2.17;;;26.00;90.70;;;;;;4227608;28;20250;-76
2022/08/13 07:53:25;;;;;;;3.17;2.10;;;26.00;90.70;;;;;;4219988;28;20295;-76
2022/08/13 07:55:28;;;;;;;2.70;2.00;;;26.00;90.50;;;;;;4226223;27;20282;-76
2022/08/13 07:57:31;;;;;;;2.75;2.05;;;26.00;90.50;;;;;;4223741;28;20312;-76
2022/08/13 07:59:36;;;;;;;3.05;2.40;;;26.00;90.40;;;;;;4226645;28;20226;-76
2022/08/13 08:01:45;;;;;;;2.20;2.00;;;26.00;90.30;;;;;;4228490;28;20270;-76
2022/08/13 08:03:50;;;;;;;2.78;2.40;;;26.00;90.30;;;;;;4220157;28;20258;-76
2022/08/13 08:05:54;;;;;;;2.30;2.10;;;26.00;90.60;;;;;;4228570;28;20290;-76
2022/08/13 08:07:56;;;;;;;3.20;2.55;;;26.00;90.30;;;;;;4226466;28;20225;-76
2022/08/13 08:09:59;;;;;;;3.15;1.88;;;26.00;90.30;;;;;;4228020;27;20270;-76
2022/08/13 08:14:25;;;;;;;2.10;1.88;;;26.00;90.50;;;;;;4225089;28;20186;-75
2022/08/13 08:16:30;;;;;;;2.00;1.80;;;26.00;90.30;;;;;;4227483;28;20213;-76
2022/08/13 08:18:34;;;;;;;2.60;1.92;;;26.00;90.40;;;;;;4223268;28;20215;-76
2022/08/13 08:20:36;;;;;;;2.13;1.77;;;26.00;90.40;;;;;;4225805;28;20218;-76
2022/08/13 08:22:45;;;;;;;2.33;2.08;;;26.10;90.50;;;;;;4223019;28;20214;-76
2022/08/13 08:24:48;;;;;;;2.33;2.13;;;26.00;90.40;;;;;;4222599;28;20614;-76
2022/08/13 08:26:53;;;;;;;2.60;2.05;;;26.10;90.60;;;;;;4221570;28;20263;-76
2022/08/13 08:28:56;;;;;;;2.30;2.10;;;26.10;90.50;;;;;;4220330;28;20234;-76
2022/08/13 08:30:59;;;;;;;2.30;2.10;;;26.10;90.50;;;;;;4221380;28;20225;-76
2022/08/13 08:33:04;;;;;;;2.53;2.33;;;26.10;90.30;;;;;;4225681;28;20213;-76
2022/08/13 08:35:08;;;;;;;2.58;2.10;;;26.10;90.40;;;;;;4222853;28;20210;-76
2022/08/13 08:42:35;;;;;;;1.95;1.75;;;26.10;90.40;;;;;;4220144;28;20209;-76
2022/08/13 08:44:23;;;;;;;2.80;2.17;;;26.10;90.50;;;;;;4227052;28;20975;-76
2022/08/13 08:46:27;;;;;;;1.83;1.70;;;26.10;90.40;;;;;;4219482;28;20293;-76
2022/08/13 08:48:32;;;;;;;2.05;1.85;;;26.10;90.30;;;;;;4223108;28;20222;-76
2022/08/13 08:50:34;;;;;;;1.90;1.70;;;26.10;90.60;;;;;;4215100;28;20217;-75
2022/08/13 08:54:54;;;;;;;2.53;2.05;;;26.10;90.60;;;;;;4213897;28;20206;-76
2022/08/13 08:56:56;;;;;;;2.20;1.92;;;26.20;90.40;;;;;;4224247;28;21062;-76
2022/08/13 08:58:58;;;;;;;2.13;1.92;;;26.20;90.60;;;;;;4224231;28;20598;-76
2022/08/13 09:01:01;;;;;;;2.13;1.92;;;26.20;90.40;;;;;;4225987;28;20681;-76
2022/08/13 09:03:04;;;;;;;2.40;1.67;;;26.20;90.60;;;;;;4219872;28;20569;-76
2022/08/13 09:05:12;;;;;;;2.65;2.08;;;26.20;90.50;;;;;;4223054;27;20394;-76
2022/08/13 09:07:16;;;;;;;2.03;1.80;;;26.20;90.50;;;;;;4222845;28;20737;-76
2022/08/13 09:09:19;;;;;;;2.30;1.83;;;26.20;90.40;;;;;;4227829;28;20213;-76
2022/08/13 09:11:22;;;;;;;3.13;2.22;;;26.20;90.60;;;;;;4224539;28;20218;-76
2022/08/13 09:13:24;;;;;;;2.10;1.90;;;26.20;90.70;;;;;;4219740;28;20206;-76
2022/08/13 09:15:27;;;;;;;2.45;2.00;;;26.20;90.60;;;;;;4218030;28;20214;-76
2022/08/13 09:17:31;;;;;;;2.42;1.95;;;26.20;90.50;;;;;;4221779;28;20222;-76
2022/08/13 09:19:33;;;;;;;2.20;1.98;;;26.20;90.80;;;;;;4227158;28;20623;-76
2022/08/13 09:21:43;;;;;;;2.25;2.00;;;26.20;90.60;;;;;;4222271;28;20731;-76
2022/08/13 09:23:47;;;;;;;2.35;1.98;;;26.20;90.70;;;;;;4214590;28;20217;-76
2022/08/13 09:25:51;;;;;;;2.28;1.83;;;26.20;90.50;;;;;;4217631;28;20292;-76
2022/08/13 09:27:54;;;;;;;2.10;1.90;;;26.20;90.50;;;;;;4226452;28;20213;-76
2022/08/13 09:29:58;;;;;;;2.38;2.00;;;26.20;90.60;;;;;;4227220;28;20229;-76
2022/08/13 09:32:05;;;;;;;2.08;1.90;;;26.20;90.80;;;;;;4224873;28;20290;-76
2022/08/13 09:34:08;;;;;;;1.70;1.60;;;26.30;90.60;;;;;;4225949;28;20221;-76
2022/08/13 09:36:11;;;;;;;2.35;1.80;;;26.20;90.60;;;;;;4225811;28;20210;-76
2022/08/13 09:38:15;;;;;;;1.90;1.50;;;26.20;90.80;;;;;;4218565;28;20231;-76
2022/08/13 09:40:18;;;;;;;2.95;1.85;;;26.30;90.70;;;;;;4221817;28;20617;-76
2022/08/13 09:42:25;;;;;;;1.83;1.73;;;26.30;90.50;;;;;;4215819;28;20218;-76
2022/08/13 09:44:28;;;;;;;2.30;2.08;;;26.30;90.60;;;;;;4223463;28;20267;-76
2022/08/13 09:46:34;;;;;;;3.10;2.00;;;26.30;90.70;;;;;;4219412;28;20648;-76
2022/08/13 09:48:37;;;;;;;1.70;1.60;;;26.30;90.80;;;;;;4221299;28;20264;-76
2022/08/13 09:50:40;;;;;;;2.40;2.20;;;26.30;90.70;;;;;;4226603;28;20281;-76
2022/08/13 09:52:42;;;;;;;2.55;1.95;;;26.30;90.70;;;;;;4222825;28;20214;-76
2022/08/13 09:54:46;;;;;;;1.63;1.52;;;26.30;90.70;;;;;;4216183;28;20346;-76
2022/08/13 09:56:48;;;;;;;2.58;1.90;;;26.30;90.60;;;;;;4222697;28;20275;-76
2022/08/13 09:58:51;;;;;;;1.85;1.73;;;26.30;90.70;;;;;;4221816;28;20222;-76
2022/08/13 10:00:55;;;;;;;1.90;1.70;;;26.30;90.90;;;;;;4226096;28;20214;-76
2022/08/13 10:02:59;;;;;;;2.20;2.00;;;26.30;90.90;;;;;;4224302;28;20258;-76
2022/08/13 10:05:01;;;;;;;2.55;1.90;;;26.40;91.20;;;;;;4221523;28;21560;-76
2022/08/13 10:07:05;;;;;;;2.10;1.80;;;26.30;90.90;;;;;;4219472;27;20238;-76
2022/08/13 10:09:08;;;;;;;2.78;1.80;;;26.30;90.90;;;;;;4220566;28;20222;-76
2022/08/13 10:11:12;;;;;;;2.20;2.00;;;26.40;91.10;;;;;;4217110;28;20279;-76
2022/08/13 10:13:14;;;;;;;2.60;1.77;;;26.30;90.60;;;;;;4221038;28;20274;-76
2022/08/13 10:15:17;;;;;;;3.15;2.00;;;26.40;90.70;;;;;;4224222;28;20217;-76
2022/08/13 10:17:19;;;;;;;2.00;1.80;;;26.40;90.60;;;;;;4225345;28;20270;-76
2022/08/13 10:19:21;;;;;;;2.08;1.88;;;26.40;90.90;;;;;;4215018;28;20218;-76
2022/08/13 10:21:24;;;;;;;1.70;1.60;;;26.40;90.90;;;;;;4219377;28;20270;-76
2022/08/13 10:23:27;;;;;;;1.92;1.80;;;26.40;90.90;;;;;;4219594;28;20214;-76
2022/08/13 10:25:30;;;;;;;3.13;1.90;;;26.40;90.60;;;;;;4216191;28;20242;-76
2022/08/13 10:27:35;;;;;;;1.95;1.77;;;26.40;90.70;;;;;;4223887;28;20217;-76
2022/08/13 10:29:37;;;;;;;1.75;1.60;;;26.40;91.10;;;;;;4224940;28;20669;-76
2022/08/13 10:31:40;;;;;;;1.83;1.70;;;26.50;90.80;;;;;;4220264;28;20651;-76
2022/08/13 10:33:42;;;;;;;2.17;1.83;;;26.40;90.40;;;;;;4218020;28;20263;-76
2022/08/13 10:35:51;;;;;;;2.58;1.80;;;26.40;90.70;;;;;;4225528;28;20714;-76
2022/08/13 10:37:57;;;;;;;1.70;1.60;;;26.40;90.70;;;;;;4224876;28;20258;-76
2022/08/13 10:39:59;;;;;;;2.13;1.80;;;26.50;90.50;;;;;;4219354;28;20218;-76
2022/08/13 10:42:02;;;;;;;3.17;1.55;;;26.40;90.50;;;;;;4223197;28;20217;-76
2022/08/13 10:44:06;;;;;;;2.72;1.70;;;26.50;90.50;;;;;;4211937;28;20217;-76
2022/08/13 10:46:16;;;;;;;1.80;1.67;;;26.40;90.80;;;;;;4214979;28;20281;-76
2022/08/13 10:48:18;;;;;;;2.28;2.00;;;26.50;90.80;;;;;;4218365;28;20327;-76
2022/08/13 10:50:26;;;;;;;2.67;1.73;;;26.50;90.70;;;;;;4225123;28;20298;-76
2022/08/13 10:52:28;;;;;;;1.90;1.50;;;26.50;90.80;;;;;;4225734;28;20666;-76
2022/08/13 10:54:32;;;;;;;2.85;1.73;;;26.50;90.60;;;;;;4223696;28;20273;-76
2022/08/13 10:56:34;;;;;;;1.98;1.88;;;26.50;90.50;;;;;;4222409;28;20680;-76
2022/08/13 10:58:37;;;;;;;1.88;1.77;;;26.50;90.80;;;;;;4220840;28;20217;-76
2022/08/13 11:00:40;;;;;;;1.70;1.60;;;26.50;91.10;;;;;;4221838;28;20231;-76
2022/08/13 11:02:43;;;;;;;2.55;1.50;;;26.50;90.50;;;;;;4215983;28;20218;-76
2022/08/13 11:04:45;;;;;;;1.70;1.58;;;26.50;90.60;;;;;;4220016;28;20214;-76
2022/08/13 11:06:48;;;;;;;1.77;1.67;;;26.50;90.80;;;;;;4224468;28;20263;-76
2022/08/13 11:08:54;;;;;;;1.58;1.48;;;26.50;90.90;;;;;;4217888;28;20649;-76